createdAt,value
2022-11-27T00:00:48.455Z,9.60
2022-11-27T00:03:15.545Z,9.60
2022-11-27T00:05:55.517Z,9.60
2022-11-27T00:08:24.401Z,9.60
2022-11-27T00:10:51.820Z,9.60
2022-11-27T00:13:19.051Z,9.60
2022-11-27T00:15:46.122Z,9.60
2022-11-27T00:18:13.274Z,9.60
2022-11-27T00:20:40.245Z,9.60
2022-11-27T00:23:07.351Z,9.60
2022-11-27T00:25:34.756Z,9.60
2022-11-27T00:28:01.854Z,9.60
2022-11-27T00:30:28.924Z,9.60
2022-11-27T00:32:55.914Z,9.60
2022-11-27T00:35:22.799Z,9.60
2022-11-27T00:37:50.144Z,9.70
2022-11-27T00:40:17.173Z,9.70
2022-11-27T00:42:44.141Z,9.70
2022-11-27T00:45:11.246Z,9.70
2022-11-27T00:47:38.230Z,9.60
2022-11-27T00:50:05.733Z,9.70
2022-11-27T00:52:32.685Z,9.70
2022-11-27T00:54:59.581Z,9.70
2022-11-27T00:57:26.472Z,9.70
2022-11-27T00:59:53.341Z,9.80
2022-11-27T01:02:20.354Z,9.70
2022-11-27T01:04:48.561Z,9.80
2022-11-27T01:07:15.657Z,9.80
2022-11-27T01:09:42.569Z,9.80
2022-11-27T01:12:09.738Z,9.80
2022-11-27T01:14:36.914Z,9.80
2022-11-27T01:17:03.935Z,9.80
2022-11-27T01:19:30.778Z,9.80
2022-11-27T01:21:57.680Z,9.80
2022-11-27T01:24:24.613Z,9.80
2022-11-27T01:26:51.569Z,9.80
2022-11-27T01:29:18.544Z,9.90
2022-11-27T01:31:45.527Z,9.90
2022-11-27T01:34:15.942Z,9.90
2022-11-27T01:36:43.148Z,9.90
2022-11-27T01:39:18.680Z,9.90
2022-11-27T01:41:47.877Z,9.90
2022-11-27T01:44:24.215Z,10.00
2022-11-27T01:47:00.737Z,10.00
2022-11-27T01:49:46.339Z,10.00
2022-11-27T01:52:13.699Z,10.00
2022-11-27T01:54:56.275Z,10.00
2022-11-27T01:57:35.987Z,10.10
2022-11-27T02:00:07.364Z,10.10
2022-11-27T02:02:34.416Z,10.10
2022-11-27T02:05:01.390Z,10.10
2022-11-27T02:07:28.473Z,10.10
2022-11-27T02:09:55.522Z,10.10
2022-11-27T02:12:33.289Z,10.10
2022-11-27T02:15:28.239Z,10.10
2022-11-27T02:18:18.619Z,10.10
2022-11-27T02:21:06.337Z,10.10
2022-11-27T02:24:02.291Z,10.00
2022-11-27T02:26:54.228Z,10.10
2022-11-27T02:29:24.510Z,10.10
2022-11-27T02:32:11.217Z,10.10
2022-11-27T02:35:03.336Z,10.00
2022-11-27T02:37:41.234Z,10.00
2022-11-27T02:40:29.997Z,10.00
2022-11-27T02:43:03.525Z,10.00
2022-11-27T02:45:57.998Z,9.90
2022-11-27T02:48:31.280Z,9.90
2022-11-27T02:50:58.249Z,9.90
2022-11-27T02:53:33.514Z,9.90
2022-11-27T02:56:03.282Z,9.80
2022-11-27T02:58:30.455Z,9.90
2022-11-27T03:00:58.202Z,9.90
2022-11-27T03:03:29.842Z,9.90
2022-11-27T03:06:01.526Z,9.90
2022-11-27T03:08:46.240Z,9.90
2022-11-27T03:11:15.506Z,9.90
2022-11-27T03:14:05.795Z,9.90
2022-11-27T03:16:40.859Z,9.80
2022-11-27T03:19:51.797Z,9.70
2022-11-27T03:22:18.949Z,9.60
2022-11-27T03:24:45.976Z,9.50
2022-11-27T03:27:15.368Z,9.50
2022-11-27T03:29:53.847Z,9.30
2022-11-27T03:32:21.048Z,9.30
2022-11-27T03:34:48.816Z,9.30
2022-11-27T03:37:16.121Z,9.30
2022-11-27T03:39:43.591Z,9.30
2022-11-27T03:42:19.686Z,9.20
2022-11-27T03:44:55.249Z,9.10
2022-11-27T03:47:50.083Z,9.20
2022-11-27T03:50:29.982Z,9.10
2022-11-27T03:53:28.423Z,9.10
2022-11-27T03:56:24.782Z,9.10
2022-11-27T03:59:09.563Z,9.00
2022-11-27T04:01:37.007Z,9.00
2022-11-27T04:04:04.100Z,8.90
2022-11-27T04:06:31.053Z,8.90
2022-11-27T04:08:58.031Z,8.90
2022-11-27T04:11:25.027Z,8.80
2022-11-27T04:13:54.657Z,8.90
2022-11-27T04:16:21.724Z,8.80
2022-11-27T04:18:48.700Z,8.70
2022-11-27T04:21:16.965Z,8.70
2022-11-27T04:23:44.751Z,8.60
2022-11-27T04:26:11.693Z,8.60
2022-11-27T04:28:38.760Z,8.70
2022-11-27T04:31:05.855Z,8.70
2022-11-27T04:33:32.895Z,8.70
2022-11-27T04:35:59.817Z,8.70
2022-11-27T04:38:26.704Z,8.70
2022-11-27T04:40:53.768Z,8.60
2022-11-27T04:43:20.959Z,8.60
2022-11-27T04:45:47.871Z,8.60
2022-11-27T04:48:14.915Z,8.60
2022-11-27T04:50:41.808Z,8.70
2022-11-27T04:53:08.712Z,8.70
2022-11-27T04:55:35.735Z,8.70
2022-11-27T04:58:02.617Z,8.60
2022-11-27T05:00:29.604Z,8.60
2022-11-27T05:02:56.548Z,8.60
2022-11-27T05:05:23.495Z,8.70
2022-11-27T05:07:50.459Z,8.70
2022-11-27T05:10:18.077Z,8.60
2022-11-27T05:12:44.976Z,8.60
2022-11-27T05:15:11.881Z,8.50
2022-11-27T05:17:38.749Z,8.60
2022-11-27T05:20:06.745Z,8.60
2022-11-27T05:22:33.666Z,8.60
2022-11-27T05:25:00.574Z,8.50
2022-11-27T05:27:27.469Z,8.50
2022-11-27T05:29:54.384Z,8.40
2022-11-27T05:32:21.313Z,8.40
2022-11-27T05:34:49.732Z,8.50
2022-11-27T05:37:19.684Z,8.40
2022-11-27T05:39:47.178Z,8.40
2022-11-27T05:42:14.224Z,8.20
2022-11-27T05:44:41.160Z,8.20
2022-11-27T05:47:08.262Z,8.10
2022-11-27T05:49:35.387Z,8.10
2022-11-27T05:52:02.262Z,8.10
2022-11-27T05:54:29.125Z,8.10
2022-11-27T05:56:56.011Z,8.10
2022-11-27T05:59:22.969Z,8.10
2022-11-27T06:01:49.881Z,8.10
2022-11-27T06:04:17.111Z,8.10
2022-11-27T06:06:44.063Z,8.10
2022-11-27T06:09:13.441Z,8.10
2022-11-27T06:11:41.866Z,8.20
2022-11-27T06:14:09.782Z,8.10
2022-11-27T06:16:37.359Z,8.10
2022-11-27T06:19:04.374Z,8.10
2022-11-27T06:21:31.274Z,8.00
2022-11-27T06:23:58.404Z,7.90
2022-11-27T06:26:28.067Z,8.00
2022-11-27T06:28:56.328Z,8.00
2022-11-27T06:31:25.790Z,7.90
2022-11-27T06:33:54.626Z,8.00
2022-11-27T06:36:23.162Z,8.00
2022-11-27T06:38:50.055Z,8.00
2022-11-27T06:41:19.363Z,8.10
2022-11-27T06:43:46.313Z,8.00
2022-11-27T06:46:16.346Z,8.00
2022-11-27T06:48:45.202Z,8.00
2022-11-27T06:51:14.406Z,8.00
2022-11-27T06:53:42.055Z,8.00
2022-11-27T06:56:14.865Z,7.90
2022-11-27T06:58:42.078Z,7.90
2022-11-27T07:01:17.758Z,7.80
2022-11-27T07:03:45.093Z,7.90
2022-11-27T07:06:15.222Z,7.80
2022-11-27T07:08:42.440Z,7.90
2022-11-27T07:11:13.021Z,7.80
2022-11-27T07:13:40.372Z,7.70
2022-11-27T07:16:10.528Z,7.80
2022-11-27T07:18:39.989Z,7.80
2022-11-27T07:21:07.163Z,7.60
2022-11-27T07:23:34.157Z,7.60
2022-11-27T07:26:09.376Z,7.70
2022-11-27T07:28:36.627Z,7.60
2022-11-27T07:31:04.134Z,7.70
2022-11-27T07:33:31.273Z,7.70
2022-11-27T07:36:00.555Z,7.70
2022-11-27T07:38:27.493Z,7.80
2022-11-27T07:40:54.382Z,7.90
2022-11-27T07:43:21.499Z,8.00
2022-11-27T07:45:48.490Z,8.10
2022-11-27T07:48:15.488Z,8.20
2022-11-27T07:50:42.395Z,8.30
2022-11-27T07:53:09.341Z,8.30
2022-11-27T07:55:39.324Z,8.20
2022-11-27T07:58:10.229Z,8.10
2022-11-27T08:00:37.338Z,8.10
2022-11-27T08:03:04.359Z,8.10
2022-11-27T08:05:34.852Z,8.00
2022-11-27T08:08:04.378Z,8.10
2022-11-27T08:10:34.591Z,8.00
2022-11-27T08:13:01.471Z,8.10
2022-11-27T08:15:28.622Z,8.00
2022-11-27T08:17:55.551Z,7.90
2022-11-27T08:20:22.782Z,7.80
2022-11-27T08:22:49.995Z,7.80
2022-11-27T08:25:17.365Z,7.70
2022-11-27T08:27:44.578Z,7.70
2022-11-27T08:30:11.648Z,7.70
2022-11-27T08:32:39.913Z,7.70
2022-11-27T08:35:07.317Z,7.70
2022-11-27T08:37:34.420Z,7.70
2022-11-27T08:40:01.407Z,7.60
2022-11-27T08:42:28.419Z,7.70
2022-11-27T08:44:55.454Z,7.60
2022-11-27T08:47:22.423Z,7.50
2022-11-27T08:49:49.396Z,7.60
2022-11-27T08:52:16.370Z,7.60
2022-11-27T08:54:43.384Z,7.60
2022-11-27T08:57:10.383Z,7.60
2022-11-27T08:59:37.317Z,7.60
2022-11-27T09:02:04.365Z,7.60
2022-11-27T09:04:31.385Z,7.80
2022-11-27T09:06:58.927Z,8.00
2022-11-27T09:09:25.957Z,8.10
2022-11-27T09:11:55.319Z,8.30
2022-11-27T09:14:22.259Z,8.50
2022-11-27T09:16:49.181Z,8.70
2022-11-27T09:19:16.268Z,8.70
2022-11-27T09:21:43.195Z,8.80
2022-11-27T09:24:10.211Z,9.00
2022-11-27T09:26:37.126Z,9.10
2022-11-27T09:29:04.181Z,9.20
2022-11-27T09:31:31.284Z,9.30
2022-11-27T09:33:58.746Z,9.50
2022-11-27T09:36:26.719Z,9.60
2022-11-27T09:38:54.579Z,9.80
2022-11-27T09:41:39.528Z,9.90
2022-11-27T09:44:23.331Z,10.10
2022-11-27T09:46:51.525Z,10.20
2022-11-27T09:49:24.247Z,10.30
2022-11-27T09:52:03.577Z,10.40
2022-11-27T09:55:01.771Z,10.60
2022-11-27T09:57:33.132Z,10.80
2022-11-27T10:00:05.066Z,10.90
2022-11-27T10:02:34.019Z,11.00
2022-11-27T10:05:13.886Z,11.20
2022-11-27T10:07:47.260Z,11.40
2022-11-27T10:10:29.744Z,11.50
2022-11-27T10:13:34.878Z,11.50
2022-11-27T10:16:16.818Z,11.40
2022-11-27T10:19:03.173Z,10.90
2022-11-27T10:21:58.803Z,11.00
2022-11-27T10:24:36.912Z,11.10
2022-11-27T10:27:15.345Z,11.20
2022-11-27T10:29:50.485Z,11.30
2022-11-27T10:35:21.985Z,11.50
2022-11-27T10:38:07.045Z,11.60
2022-11-27T10:40:58.623Z,11.80
2022-11-27T10:43:26.089Z,12.00
2022-11-27T10:46:14.033Z,12.20
2022-11-27T10:48:41.448Z,12.40
2022-11-27T10:51:18.708Z,12.30
2022-11-27T10:53:48.685Z,12.40
2022-11-27T10:56:51.387Z,12.50
2022-11-27T10:59:33.148Z,12.50
2022-11-27T11:02:03.480Z,12.70
2022-11-27T11:04:37.919Z,12.80
2022-11-27T11:07:28.915Z,12.70
2022-11-27T11:09:56.836Z,12.80
2022-11-27T11:12:24.427Z,12.90
2022-11-27T11:14:59.567Z,12.80
2022-11-27T11:17:28.602Z,12.80
2022-11-27T11:19:55.623Z,13.00
2022-11-27T11:22:22.841Z,13.00
2022-11-27T11:24:53.126Z,13.10
2022-11-27T11:27:26.967Z,13.30
2022-11-27T11:29:58.686Z,13.30
2022-11-27T11:32:30.041Z,13.20
2022-11-27T11:35:05.303Z,13.30
2022-11-27T11:37:34.746Z,13.20
2022-11-27T11:40:21.800Z,13.20
2022-11-27T11:42:58.935Z,13.30
2022-11-27T11:45:31.359Z,13.40
2022-11-27T11:48:02.665Z,13.60
2022-11-27T11:51:01.549Z,13.70
2022-11-27T11:53:35.643Z,13.70
2022-11-27T11:56:18.335Z,13.50
2022-11-27T11:58:51.130Z,13.60
2022-11-27T12:01:43.683Z,13.70
2022-11-27T12:04:37.055Z,13.60
2022-11-27T12:07:04.125Z,14.00
2022-11-27T12:09:42.217Z,14.00
2022-11-27T12:12:24.785Z,14.10
2022-11-27T12:15:06.407Z,14.40
2022-11-27T12:17:42.346Z,14.60
2022-11-27T12:20:21.414Z,14.80
2022-11-27T12:23:06.728Z,14.50
2022-11-27T12:25:45.668Z,14.20
2022-11-27T12:28:27.673Z,13.90
2022-11-27T12:30:57.671Z,13.40
2022-11-27T12:33:52.797Z,13.40
2022-11-27T12:36:54.968Z,13.00
2022-11-27T12:39:52.602Z,12.60
2022-11-27T12:42:36.503Z,12.70
2022-11-27T12:45:17.785Z,12.90
2022-11-27T12:47:56.858Z,12.90
2022-11-27T12:50:41.963Z,13.00
2022-11-27T12:53:32.225Z,12.60
2022-11-27T12:56:26.720Z,12.00
2022-11-27T12:59:02.516Z,11.70
2022-11-27T13:01:36.562Z,11.60
2022-11-27T13:04:19.238Z,11.50
2022-11-27T13:07:02.302Z,11.40
2022-11-27T13:09:45.211Z,11.20
2022-11-27T13:12:24.742Z,11.10
2022-11-27T13:14:59.517Z,11.00
2022-11-27T13:17:33.437Z,11.00
2022-11-27T13:20:03.178Z,11.30
2022-11-27T13:22:36.119Z,11.80
2022-11-27T13:25:03.874Z,12.10
2022-11-27T13:27:36.382Z,12.20
2022-11-27T13:30:08.129Z,12.40
2022-11-27T13:32:43.538Z,12.60
2022-11-27T13:35:30.351Z,12.80
2022-11-27T13:38:06.392Z,12.90
2022-11-27T13:40:48.827Z,12.90
2022-11-27T13:43:37.185Z,13.10
2022-11-27T13:46:11.963Z,13.30
2022-11-27T13:48:42.422Z,13.10
2022-11-27T13:51:11.865Z,13.50
2022-11-27T13:53:42.584Z,13.70
2022-11-27T13:56:09.962Z,13.60
2022-11-27T13:58:40.105Z,13.60
2022-11-27T14:01:22.592Z,13.80
2022-11-27T14:03:50.247Z,13.80
2022-11-27T14:06:30.698Z,13.80
2022-11-27T14:09:06.638Z,13.60
2022-11-27T14:11:48.351Z,13.50
2022-11-27T14:14:19.452Z,13.40
2022-11-27T14:16:59.094Z,13.20
2022-11-27T14:19:41.826Z,13.10
2022-11-27T14:22:16.506Z,12.80
2022-11-27T14:24:45.901Z,12.50
2022-11-27T14:27:35.913Z,12.20
2022-11-27T14:30:41.586Z,12.20
2022-11-27T14:33:24.685Z,12.10
2022-11-27T14:35:56.763Z,12.00
2022-11-27T14:38:25.975Z,11.90
2022-11-27T14:40:54.141Z,11.90
2022-11-27T14:43:26.373Z,11.80
2022-11-27T14:45:57.567Z,11.40
2022-11-27T14:48:41.526Z,11.10
2022-11-27T14:51:17.323Z,10.90
2022-11-27T14:53:49.802Z,10.50
2022-11-27T14:56:18.060Z,10.20
2022-11-27T14:58:52.322Z,10.10
2022-11-27T15:01:25.809Z,9.80
2022-11-27T15:04:05.567Z,9.70
2022-11-27T15:06:40.214Z,9.60
2022-11-27T15:09:30.696Z,9.30
2022-11-27T15:12:14.155Z,9.20
2022-11-27T15:14:51.705Z,9.20
2022-11-27T15:17:26.242Z,9.10
2022-11-27T15:19:55.588Z,9.00
2022-11-27T15:22:23.268Z,9.00
2022-11-27T15:25:01.111Z,8.90
2022-11-27T15:27:31.454Z,8.90
2022-11-27T15:30:07.353Z,8.80
2022-11-27T15:32:47.003Z,8.80
2022-11-27T15:35:15.964Z,8.80
2022-11-27T15:37:43.205Z,8.80
2022-11-27T15:40:27.071Z,8.70
2022-11-27T15:42:54.002Z,8.70
2022-11-27T15:45:21.358Z,8.80
2022-11-27T15:47:48.378Z,8.80
2022-11-27T15:50:16.512Z,8.80
2022-11-27T15:52:43.679Z,8.90
2022-11-27T15:55:17.751Z,8.90
2022-11-27T15:57:44.759Z,9.00
2022-11-27T16:00:13.167Z,9.00
2022-11-27T16:02:40.583Z,8.90
2022-11-27T16:05:08.966Z,8.90
2022-11-27T16:07:36.120Z,8.80
2022-11-27T16:10:03.738Z,8.80
2022-11-27T16:12:30.705Z,8.70
2022-11-27T16:14:57.727Z,8.60
2022-11-27T16:17:24.669Z,8.50
2022-11-27T16:19:51.703Z,8.50
2022-11-27T16:22:19.087Z,8.40
2022-11-27T16:24:45.993Z,8.30
2022-11-27T16:27:13.001Z,8.30
2022-11-27T16:29:39.957Z,8.30
2022-11-27T16:32:07.055Z,8.20
2022-11-27T16:34:34.017Z,8.10
2022-11-27T16:37:00.944Z,8.10
2022-11-27T16:39:28.489Z,8.10
2022-11-27T16:41:55.542Z,8.00
2022-11-27T16:44:22.478Z,8.00
2022-11-27T16:46:50.579Z,7.90
2022-11-27T16:49:17.647Z,7.80
2022-11-27T16:51:44.662Z,7.80
2022-11-27T16:54:13.342Z,7.80
2022-11-27T16:56:40.304Z,7.80
2022-11-27T16:59:09.485Z,7.80
2022-11-27T17:01:37.504Z,7.80
2022-11-27T17:04:09.096Z,7.80
2022-11-27T17:06:38.167Z,7.80
2022-11-27T17:09:07.638Z,7.80
2022-11-27T17:11:36.760Z,7.70
2022-11-27T17:14:06.809Z,7.70
2022-11-27T17:16:34.610Z,7.70
2022-11-27T17:19:01.712Z,7.70
2022-11-27T17:21:32.025Z,7.80
2022-11-27T17:24:01.309Z,7.70
2022-11-27T17:26:30.608Z,7.70
2022-11-27T17:28:57.905Z,7.80
2022-11-27T17:31:27.181Z,7.70
2022-11-27T17:33:56.785Z,7.70
2022-11-27T17:36:25.246Z,7.70
2022-11-27T17:38:53.588Z,7.80
2022-11-27T17:41:21.042Z,7.80
2022-11-27T17:43:48.515Z,7.80
2022-11-27T17:46:19.819Z,7.90
2022-11-27T17:48:46.881Z,8.00
2022-11-27T17:51:14.063Z,8.00
2022-11-27T17:53:40.992Z,8.00
2022-11-27T17:56:10.792Z,8.00
2022-11-27T17:58:38.255Z,8.00
2022-11-27T18:01:07.781Z,8.00
2022-11-27T18:03:35.013Z,8.00
2022-11-27T18:06:06.095Z,8.00
2022-11-27T18:08:33.601Z,8.00
2022-11-27T18:11:15.128Z,8.00
2022-11-27T18:13:42.322Z,8.10
2022-11-27T18:16:11.776Z,8.10
2022-11-27T18:18:39.293Z,8.20
2022-11-27T18:21:16.742Z,8.30
2022-11-27T18:24:20.776Z,8.30
2022-11-27T18:29:22.482Z,8.40
2022-11-27T18:31:51.110Z,8.50
2022-11-27T18:34:18.305Z,8.50
2022-11-27T18:36:46.059Z,8.50
2022-11-27T18:39:13.571Z,8.60
2022-11-27T18:41:41.079Z,8.60
2022-11-27T18:44:08.008Z,8.60
2022-11-27T18:46:35.154Z,8.50
2022-11-27T18:49:02.244Z,8.50
2022-11-27T18:51:29.198Z,8.50
2022-11-27T18:53:56.660Z,8.50
2022-11-27T18:56:26.848Z,8.50
2022-11-27T18:58:54.421Z,8.50
2022-11-27T19:01:27.575Z,8.50
2022-11-27T19:03:55.215Z,8.60
2022-11-27T19:06:23.967Z,8.60
2022-11-27T19:08:51.053Z,8.70
2022-11-27T19:11:21.856Z,8.70
2022-11-27T19:13:50.238Z,8.70
2022-11-27T19:16:23.107Z,8.70
2022-11-27T19:18:50.445Z,8.70
2022-11-27T19:21:22.924Z,8.80
2022-11-27T19:23:51.402Z,8.70
2022-11-27T19:26:23.755Z,8.70
2022-11-27T19:28:57.024Z,8.70
2022-11-27T19:31:25.077Z,8.70
2022-11-27T19:33:58.853Z,8.70
2022-11-27T19:36:26.377Z,8.70
2022-11-27T19:38:55.598Z,8.70
2022-11-27T19:41:23.129Z,8.60
2022-11-27T19:43:50.226Z,8.70
2022-11-27T19:46:22.827Z,8.70
2022-11-27T19:48:50.593Z,8.70
2022-11-27T19:51:18.488Z,8.60
2022-11-27T19:53:45.377Z,8.70
2022-11-27T19:56:12.511Z,8.60
2022-11-27T19:58:41.117Z,8.60
2022-11-27T20:01:10.788Z,8.50
2022-11-27T20:03:38.284Z,8.40
2022-11-27T20:06:08.998Z,8.40
2022-11-27T20:08:36.200Z,8.40
2022-11-27T20:11:04.554Z,8.40
2022-11-27T20:13:31.519Z,8.30
2022-11-27T20:15:58.413Z,8.30
2022-11-27T20:18:27.956Z,8.30
2022-11-27T20:21:17.066Z,8.40
2022-11-27T20:23:44.990Z,8.40
2022-11-27T20:26:15.635Z,8.40
2022-11-27T20:28:43.283Z,8.50
2022-11-27T20:31:16.437Z,8.50
2022-11-27T20:33:43.492Z,8.60
2022-11-27T20:36:14.409Z,8.60
2022-11-27T20:38:41.461Z,8.60
2022-11-27T20:41:10.534Z,8.60
2022-11-27T20:43:38.149Z,8.60
2022-11-27T20:46:05.773Z,8.50
2022-11-27T20:48:32.757Z,8.60
2022-11-27T20:51:11.320Z,8.60
2022-11-27T20:53:38.936Z,8.70
2022-11-27T20:56:08.004Z,8.70
2022-11-27T20:58:36.447Z,8.70
2022-11-27T21:01:12.809Z,8.70
2022-11-27T21:03:39.850Z,8.70
2022-11-27T21:06:07.871Z,8.70
2022-11-27T21:08:34.967Z,8.70
2022-11-27T21:11:13.408Z,8.70
2022-11-27T21:13:40.430Z,8.70
2022-11-27T21:16:11.975Z,8.70
2022-11-27T21:18:39.917Z,8.70
2022-11-27T21:21:13.769Z,8.70
2022-11-27T21:23:41.811Z,8.70
2022-11-27T21:26:09.771Z,8.70
2022-11-27T21:28:37.345Z,8.70
2022-11-27T21:31:11.097Z,8.80
2022-11-27T21:33:38.128Z,8.70
2022-11-27T21:36:07.498Z,8.70
2022-11-27T21:38:34.489Z,8.60
2022-11-27T21:41:01.531Z,8.70
2022-11-27T21:43:28.409Z,8.60
2022-11-27T21:45:55.391Z,8.60
2022-11-27T21:48:22.325Z,8.50
2022-11-27T21:50:49.310Z,8.40
2022-11-27T21:53:16.266Z,8.40
2022-11-27T21:55:43.514Z,8.40
2022-11-27T21:58:10.481Z,8.40
2022-11-27T22:00:37.628Z,8.30
2022-11-27T22:03:04.681Z,8.30
2022-11-27T22:05:31.572Z,8.30
2022-11-27T22:07:58.615Z,8.20
2022-11-27T22:10:25.746Z,8.20
2022-11-27T22:12:52.694Z,8.30
2022-11-27T22:15:19.777Z,8.30
2022-11-27T22:17:46.745Z,8.20
2022-11-27T22:20:14.482Z,8.20
2022-11-27T22:22:41.461Z,8.10
2022-11-27T22:25:08.774Z,8.10
2022-11-27T22:27:35.727Z,8.10
2022-11-27T22:30:02.634Z,8.00
2022-11-27T22:32:29.604Z,7.90
2022-11-27T22:34:56.482Z,7.90
2022-11-27T22:37:23.386Z,7.80
2022-11-27T22:39:50.487Z,7.80
2022-11-27T22:42:17.480Z,7.90
2022-11-27T22:44:44.683Z,7.90
2022-11-27T22:47:11.644Z,7.90
2022-11-27T22:49:38.512Z,7.80
2022-11-27T22:52:05.648Z,7.80
2022-11-27T22:54:32.536Z,7.80
2022-11-27T22:56:59.464Z,7.80
2022-11-27T22:59:34.502Z,7.80
2022-11-27T23:02:02.999Z,7.70
2022-11-27T23:04:30.223Z,7.60
2022-11-27T23:06:57.223Z,7.60
2022-11-27T23:09:24.176Z,7.50
2022-11-27T23:11:51.338Z,7.50
2022-11-27T23:14:18.519Z,7.50
2022-11-27T23:16:45.596Z,7.40
2022-11-27T23:19:12.558Z,7.40
2022-11-27T23:21:40.110Z,7.40
2022-11-27T23:24:09.835Z,7.40
2022-11-27T23:26:36.834Z,7.30
2022-11-27T23:29:04.457Z,7.30
2022-11-27T23:31:35.333Z,7.30
2022-11-27T23:34:05.305Z,7.30
2022-11-27T23:36:32.860Z,7.30
2022-11-27T23:39:01.111Z,7.30
2022-11-27T23:41:29.157Z,7.40
2022-11-27T23:43:56.683Z,7.40
2022-11-27T23:46:26.773Z,7.50
2022-11-27T23:48:55.002Z,7.50
2022-11-27T23:51:24.705Z,7.50
2022-11-27T23:53:52.661Z,7.50
2022-11-27T23:56:24.897Z,7.40
2022-11-27T23:58:52.503Z,7.40
